sensor_id;sensor_type;location;lat;lon;timestamp;temperature;humidity
39079;DHT22;24829;49.208;12.080;2022-11-18T00:02:15;7.00;99.90
39079;DHT22;24829;49.208;12.080;2022-11-18T00:04:41;7.00;99.90
39079;DHT22;24829;49.208;12.080;2022-11-18T00:07:06;7.00;99.90
39079;DHT22;24829;49.208;12.080;2022-11-18T00:09:32;7.00;99.90
39079;DHT22;24829;49.208;12.080;2022-11-18T00:11:57;7.00;99.90
39079;DHT22;24829;49.208;12.080;2022-11-18T00:14:41;7.00;99.90
39079;DHT22;24829;49.208;12.080;2022-11-18T00:17:07;7.00;99.90
39079;DHT22;24829;49.208;12.080;2022-11-18T00:19:37;6.90;99.90
39079;DHT22;24829;49.208;12.080;2022-11-18T00:22:05;6.90;99.90
39079;DHT22;24829;49.208;12.080;2022-11-18T00:24:32;6.80;99.90
39079;DHT22;24829;49.208;12.080;2022-11-18T00:26:58;6.80;99.90
39079;DHT22;24829;49.208;12.080;2022-11-18T00:29:24;6.70;99.90
39079;DHT22;24829;49.208;12.080;2022-11-18T00:31:53;6.70;99.90
39079;DHT22;24829;49.208;12.080;2022-11-18T00:34:18;6.70;99.90
39079;DHT22;24829;49.208;12.080;2022-11-18T00:36:45;6.70;99.90
39079;DHT22;24829;49.208;12.080;2022-11-18T00:39:12;6.70;99.90
39079;DHT22;24829;49.208;12.080;2022-11-18T00:41:38;6.80;99.90
39079;DHT22;24829;49.208;12.080;2022-11-18T00:44:23;6.80;99.90
39079;DHT22;24829;49.208;12.080;2022-11-18T00:46:48;6.90;99.90
39079;DHT22;24829;49.208;12.080;2022-11-18T00:49:14;6.90;99.90
39079;DHT22;24829;49.208;12.080;2022-11-18T00:51:40;6.90;99.90
39079;DHT22;24829;49.208;12.080;2022-11-18T00:54:05;6.90;99.90
39079;DHT22;24829;49.208;12.080;2022-11-18T00:56:31;6.90;99.90
39079;DHT22;24829;49.208;12.080;2022-11-18T00:58:57;7.00;99.90
39079;DHT22;24829;49.208;12.080;2022-11-18T01:01:23;7.00;99.90
39079;DHT22;24829;49.208;12.080;2022-11-18T01:03:48;7.00;99.90
39079;DHT22;24829;49.208;12.080;2022-11-18T01:06:14;6.90;99.90
39079;DHT22;24829;49.208;12.080;2022-11-18T01:08:39;6.90;99.90
39079;DHT22;24829;49.208;12.080;2022-11-18T01:11:05;6.90;99.90
39079;DHT22;24829;49.208;12.080;2022-11-18T01:13:51;6.90;99.90
39079;DHT22;24829;49.208;12.080;2022-11-18T01:16:18;6.90;99.90
39079;DHT22;24829;49.208;12.080;2022-11-18T01:18:44;6.90;99.90
39079;DHT22;24829;49.208;12.080;2022-11-18T01:21:10;6.80;99.90
39079;DHT22;24829;49.208;12.080;2022-11-18T01:23:35;6.80;99.90
39079;DHT22;24829;49.208;12.080;2022-11-18T01:26:04;6.80;99.90
39079;DHT22;24829;49.208;12.080;2022-11-18T01:28:31;6.80;99.90
39079;DHT22;24829;49.208;12.080;2022-11-18T01:31:03;6.80;99.90
39079;DHT22;24829;49.208;12.080;2022-11-18T01:33:29;6.80;99.90
39079;DHT22;24829;49.208;12.080;2022-11-18T01:35:55;6.80;99.90
39079;DHT22;24829;49.208;12.080;2022-11-18T01:38:20;6.80;99.90
39079;DHT22;24829;49.208;12.080;2022-11-18T01:40:46;6.80;99.90
39079;DHT22;24829;49.208;12.080;2022-11-18T01:43:14;6.80;99.90
39079;DHT22;24829;49.208;12.080;2022-11-18T01:45:42;6.70;99.90
39079;DHT22;24829;49.208;12.080;2022-11-18T01:48:26;6.70;99.90
39079;DHT22;24829;49.208;12.080;2022-11-18T01:50:55;6.70;99.90
39079;DHT22;24829;49.208;12.080;2022-11-18T01:53:31;6.70;99.90
39079;DHT22;24829;49.208;12.080;2022-11-18T01:56:01;6.70;99.90
39079;DHT22;24829;49.208;12.080;2022-11-18T01:58:36;6.60;99.90
39079;DHT22;24829;49.208;12.080;2022-11-18T02:01:03;6.60;99.90
39079;DHT22;24829;49.208;12.080;2022-11-18T02:03:31;6.60;99.90
39079;DHT22;24829;49.208;12.080;2022-11-18T02:05:59;6.60;99.90
39079;DHT22;24829;49.208;12.080;2022-11-18T02:08:26;6.60;99.90
39079;DHT22;24829;49.208;12.080;2022-11-18T02:10:52;6.70;99.90
39079;DHT22;24829;49.208;12.080;2022-11-18T02:13:18;6.70;99.90
39079;DHT22;24829;49.208;12.080;2022-11-18T02:21:32;6.70;99.90
39079;DHT22;24829;49.208;12.080;2022-11-18T02:24:13;6.70;99.90
39079;DHT22;24829;49.208;12.080;2022-11-18T02:29:44;6.70;99.90
39079;DHT22;24829;49.208;12.080;2022-11-18T02:32:23;6.80;99.90
39079;DHT22;24829;49.208;12.080;2022-11-18T02:38:12;6.70;99.90
39079;DHT22;24829;49.208;12.080;2022-11-18T02:40:54;6.70;99.90
39079;DHT22;24829;49.208;12.080;2022-11-18T02:43:33;6.60;99.90
39079;DHT22;24829;49.208;12.080;2022-11-18T02:46:07;6.50;99.90
39079;DHT22;24829;49.208;12.080;2022-11-18T02:48:38;6.40;99.90
39079;DHT22;24829;49.208;12.080;2022-11-18T02:51:06;6.30;99.90
39079;DHT22;24829;49.208;12.080;2022-11-18T02:53:33;6.30;99.90
39079;DHT22;24829;49.208;12.080;2022-11-18T02:56:01;6.30;99.90
39079;DHT22;24829;49.208;12.080;2022-11-18T02:58:27;6.30;99.90
39079;DHT22;24829;49.208;12.080;2022-11-18T03:00:57;6.30;99.90
39079;DHT22;24829;49.208;12.080;2022-11-18T03:03:34;6.30;99.90
39079;DHT22;24829;49.208;12.080;2022-11-18T03:08:56;6.50;99.90
39079;DHT22;24829;49.208;12.080;2022-11-18T03:11:33;6.50;99.90
39079;DHT22;24829;49.208;12.080;2022-11-18T03:16:59;6.50;99.90
39079;DHT22;24829;49.208;12.080;2022-11-18T03:24:41;6.50;99.90
39079;DHT22;24829;49.208;12.080;2022-11-18T03:27:23;6.50;99.90
39079;DHT22;24829;49.208;12.080;2022-11-18T03:30:10;6.60;99.90
39079;DHT22;24829;49.208;12.080;2022-11-18T03:32:40;6.60;99.90
39079;DHT22;24829;49.208;12.080;2022-11-18T03:35:19;6.60;99.90
39079;DHT22;24829;49.208;12.080;2022-11-18T03:37:48;6.60;99.90
39079;DHT22;24829;49.208;12.080;2022-11-18T03:40:24;6.60;99.90
39079;DHT22;24829;49.208;12.080;2022-11-18T03:42:55;6.60;99.90
39079;DHT22;24829;49.208;12.080;2022-11-18T03:45:46;6.60;99.90
39079;DHT22;24829;49.208;12.080;2022-11-18T03:48:18;6.60;99.90
39079;DHT22;24829;49.208;12.080;2022-11-18T03:50:52;6.60;99.90
39079;DHT22;24829;49.208;12.080;2022-11-18T03:53:20;6.60;99.90
39079;DHT22;24829;49.208;12.080;2022-11-18T03:55:51;6.70;99.90
39079;DHT22;24829;49.208;12.080;2022-11-18T04:00:52;6.70;99.90
39079;DHT22;24829;49.208;12.080;2022-11-18T04:03:18;6.70;99.90
39079;DHT22;24829;49.208;12.080;2022-11-18T04:05:45;6.70;99.90
39079;DHT22;24829;49.208;12.080;2022-11-18T04:08:25;6.70;99.90
39079;DHT22;24829;49.208;12.080;2022-11-18T04:10:57;6.70;99.90
39079;DHT22;24829;49.208;12.080;2022-11-18T04:13:29;6.70;99.90
39079;DHT22;24829;49.208;12.080;2022-11-18T04:15:55;6.70;99.90
39079;DHT22;24829;49.208;12.080;2022-11-18T04:18:21;6.70;99.90
39079;DHT22;24829;49.208;12.080;2022-11-18T04:20:46;6.70;99.90
39079;DHT22;24829;49.208;12.080;2022-11-18T04:23:12;6.70;99.90
39079;DHT22;24829;49.208;12.080;2022-11-18T04:25:37;6.60;99.90
39079;DHT22;24829;49.208;12.080;2022-11-18T04:28:04;6.50;99.90
39079;DHT22;24829;49.208;12.080;2022-11-18T04:30:30;6.40;99.90
39079;DHT22;24829;49.208;12.080;2022-11-18T04:32:56;6.30;99.90
39079;DHT22;24829;49.208;12.080;2022-11-18T04:35:22;6.30;99.90
39079;DHT22;24829;49.208;12.080;2022-11-18T04:37:47;6.30;99.90
39079;DHT22;24829;49.208;12.080;2022-11-18T04:40:13;6.20;99.90
39079;DHT22;24829;49.208;12.080;2022-11-18T04:42:39;6.20;99.90
39079;DHT22;24829;49.208;12.080;2022-11-18T04:45:05;6.20;99.90
39079;DHT22;24829;49.208;12.080;2022-11-18T04:47:30;6.20;99.90
39079;DHT22;24829;49.208;12.080;2022-11-18T04:49:56;6.20;99.90
39079;DHT22;24829;49.208;12.080;2022-11-18T04:52:21;6.10;99.90
39079;DHT22;24829;49.208;12.080;2022-11-18T04:54:47;6.20;99.90
39079;DHT22;24829;49.208;12.080;2022-11-18T04:57:13;6.20;99.90
39079;DHT22;24829;49.208;12.080;2022-11-18T04:59:38;6.20;99.90
39079;DHT22;24829;49.208;12.080;2022-11-18T05:02:04;6.30;99.90
39079;DHT22;24829;49.208;12.080;2022-11-18T05:04:32;6.40;99.90
39079;DHT22;24829;49.208;12.080;2022-11-18T05:06:59;6.40;99.90
39079;DHT22;24829;49.208;12.080;2022-11-18T05:09:25;6.40;99.90
39079;DHT22;24829;49.208;12.080;2022-11-18T05:11:51;6.50;99.90
39079;DHT22;24829;49.208;12.080;2022-11-18T05:14:35;6.50;99.90
39079;DHT22;24829;49.208;12.080;2022-11-18T05:17:03;6.50;99.90
39079;DHT22;24829;49.208;12.080;2022-11-18T05:19:29;6.50;99.90
39079;DHT22;24829;49.208;12.080;2022-11-18T05:21:55;6.50;99.90
39079;DHT22;24829;49.208;12.080;2022-11-18T05:24:20;6.50;99.90
39079;DHT22;24829;49.208;12.080;2022-11-18T05:26:49;6.50;99.90
39079;DHT22;24829;49.208;12.080;2022-11-18T05:29:14;6.50;99.90
39079;DHT22;24829;49.208;12.080;2022-11-18T05:31:41;6.50;99.90
39079;DHT22;24829;49.208;12.080;2022-11-18T05:34:06;6.50;99.90
39079;DHT22;24829;49.208;12.080;2022-11-18T05:36:32;6.50;99.90
39079;DHT22;24829;49.208;12.080;2022-11-18T05:38:58;6.50;99.90
39079;DHT22;24829;49.208;12.080;2022-11-18T05:41:24;6.50;99.90
39079;DHT22;24829;49.208;12.080;2022-11-18T05:44:08;6.50;99.90
39079;DHT22;24829;49.208;12.080;2022-11-18T05:46:34;6.50;99.90
39079;DHT22;24829;49.208;12.080;2022-11-18T05:48:59;6.50;99.90
39079;DHT22;24829;49.208;12.080;2022-11-18T05:51:25;6.50;99.90
39079;DHT22;24829;49.208;12.080;2022-11-18T05:53:51;6.50;99.90
39079;DHT22;24829;49.208;12.080;2022-11-18T05:56:26;6.50;99.90
39079;DHT22;24829;49.208;12.080;2022-11-18T05:58:52;6.50;99.90
39079;DHT22;24829;49.208;12.080;2022-11-18T06:01:29;6.50;99.90
39079;DHT22;24829;49.208;12.080;2022-11-18T06:03:55;6.50;99.90
39079;DHT22;24829;49.208;12.080;2022-11-18T06:06:22;6.60;99.90
39079;DHT22;24829;49.208;12.080;2022-11-18T06:08:55;6.60;99.90
39079;DHT22;24829;49.208;12.080;2022-11-18T06:11:21;6.60;99.90
39079;DHT22;24829;49.208;12.080;2022-11-18T06:14:04;6.60;99.90
39079;DHT22;24829;49.208;12.080;2022-11-18T06:16:32;6.60;99.90
39079;DHT22;24829;49.208;12.080;2022-11-18T06:19:00;6.60;99.90
39079;DHT22;24829;49.208;12.080;2022-11-18T06:21:27;6.60;99.90
39079;DHT22;24829;49.208;12.080;2022-11-18T06:23:53;6.60;99.90
39079;DHT22;24829;49.208;12.080;2022-11-18T06:26:19;6.60;99.90
39079;DHT22;24829;49.208;12.080;2022-11-18T06:28:45;6.60;99.90
39079;DHT22;24829;49.208;12.080;2022-11-18T06:31:12;6.50;99.90
39079;DHT22;24829;49.208;12.080;2022-11-18T06:33:38;6.50;99.90
39079;DHT22;24829;49.208;12.080;2022-11-18T06:36:03;6.40;99.90
39079;DHT22;24829;49.208;12.080;2022-11-18T06:38:29;6.40;99.90
39079;DHT22;24829;49.208;12.080;2022-11-18T06:40:59;6.30;99.90
39079;DHT22;24829;49.208;12.080;2022-11-18T06:43:25;6.20;99.90
39079;DHT22;24829;49.208;12.080;2022-11-18T06:46:14;6.20;99.90
39079;DHT22;24829;49.208;12.080;2022-11-18T06:48:59;6.20;99.90
39079;DHT22;24829;49.208;12.080;2022-11-18T06:51:26;6.20;99.90
39079;DHT22;24829;49.208;12.080;2022-11-18T06:53:52;6.20;99.90
39079;DHT22;24829;49.208;12.080;2022-11-18T06:56:19;6.20;99.90
39079;DHT22;24829;49.208;12.080;2022-11-18T06:58:45;6.30;99.90
39079;DHT22;24829;49.208;12.080;2022-11-18T07:01:28;6.30;99.90
39079;DHT22;24829;49.208;12.080;2022-11-18T07:03:56;6.30;99.90
39079;DHT22;24829;49.208;12.080;2022-11-18T07:06:23;6.30;99.90
39079;DHT22;24829;49.208;12.080;2022-11-18T07:08:50;6.30;99.90
39079;DHT22;24829;49.208;12.080;2022-11-18T07:11:21;6.40;99.90
39079;DHT22;24829;49.208;12.080;2022-11-18T07:13:47;6.40;99.90
39079;DHT22;24829;49.208;12.080;2022-11-18T07:16:16;6.40;99.90
39079;DHT22;24829;49.208;12.080;2022-11-18T07:18:43;6.40;99.90
39079;DHT22;24829;49.208;12.080;2022-11-18T07:21:14;6.50;99.90
39079;DHT22;24829;49.208;12.080;2022-11-18T07:23:41;6.50;99.90
39079;DHT22;24829;49.208;12.080;2022-11-18T07:26:07;6.60;99.90
39079;DHT22;24829;49.208;12.080;2022-11-18T07:28:33;6.60;99.90
39079;DHT22;24829;49.208;12.080;2022-11-18T07:31:07;6.70;99.90
39079;DHT22;24829;49.208;12.080;2022-11-18T07:33:33;6.70;99.90
39079;DHT22;24829;49.208;12.080;2022-11-18T07:38:27;6.70;99.90
39079;DHT22;24829;49.208;12.080;2022-11-18T07:40:52;6.80;99.90
39079;DHT22;24829;49.208;12.080;2022-11-18T07:43:18;6.80;99.90
39079;DHT22;24829;49.208;12.080;2022-11-18T07:45:43;6.80;99.90
39079;DHT22;24829;49.208;12.080;2022-11-18T07:48:09;6.80;99.90
39079;DHT22;24829;49.208;12.080;2022-11-18T07:50:34;6.90;99.90
39079;DHT22;24829;49.208;12.080;2022-11-18T07:53:00;6.90;99.90
39079;DHT22;24829;49.208;12.080;2022-11-18T07:55:25;6.90;99.90
39079;DHT22;24829;49.208;12.080;2022-11-18T07:57:51;6.90;99.90
39079;DHT22;24829;49.208;12.080;2022-11-18T08:00:17;7.00;99.90
39079;DHT22;24829;49.208;12.080;2022-11-18T08:02:43;7.00;99.90
39079;DHT22;24829;49.208;12.080;2022-11-18T08:05:09;7.00;99.90
39079;DHT22;24829;49.208;12.080;2022-11-18T08:07:34;7.00;99.90
39079;DHT22;24829;49.208;12.080;2022-11-18T08:10:00;7.10;99.90
39079;DHT22;24829;49.208;12.080;2022-11-18T08:12:28;7.10;99.90
39079;DHT22;24829;49.208;12.080;2022-11-18T08:14:55;7.00;99.90
39079;DHT22;24829;49.208;12.080;2022-11-18T08:17:21;6.90;99.90
39079;DHT22;24829;49.208;12.080;2022-11-18T08:19:46;6.80;99.90
39079;DHT22;24829;49.208;12.080;2022-11-18T08:22:12;6.80;99.90
39079;DHT22;24829;49.208;12.080;2022-11-18T08:24:37;6.80;99.90
39079;DHT22;24829;49.208;12.080;2022-11-18T08:27:03;6.70;99.90
39079;DHT22;24829;49.208;12.080;2022-11-18T08:29:29;6.70;99.90
39079;DHT22;24829;49.208;12.080;2022-11-18T08:31:54;6.70;99.90
39079;DHT22;24829;49.208;12.080;2022-11-18T08:34:20;6.70;99.90
39079;DHT22;24829;49.208;12.080;2022-11-18T08:36:46;6.80;99.90
39079;DHT22;24829;49.208;12.080;2022-11-18T08:39:11;6.80;99.90
39079;DHT22;24829;49.208;12.080;2022-11-18T08:41:43;6.80;99.90
39079;DHT22;24829;49.208;12.080;2022-11-18T08:44:12;6.90;99.90
39079;DHT22;24829;49.208;12.080;2022-11-18T08:46:38;6.90;99.90
39079;DHT22;24829;49.208;12.080;2022-11-18T08:49:04;6.90;99.90
39079;DHT22;24829;49.208;12.080;2022-11-18T08:51:29;7.00;99.90
39079;DHT22;24829;49.208;12.080;2022-11-18T08:53:55;7.00;99.90
39079;DHT22;24829;49.208;12.080;2022-11-18T08:56:22;7.10;99.90
39079;DHT22;24829;49.208;12.080;2022-11-18T08:58:48;7.20;99.90
39079;DHT22;24829;49.208;12.080;2022-11-18T09:01:14;7.20;99.90
39079;DHT22;24829;49.208;12.080;2022-11-18T09:03:40;7.30;99.90
39079;DHT22;24829;49.208;12.080;2022-11-18T09:06:13;7.40;99.90
39079;DHT22;24829;49.208;12.080;2022-11-18T09:08:40;7.40;99.90
39079;DHT22;24829;49.208;12.080;2022-11-18T09:11:07;7.40;99.90
39079;DHT22;24829;49.208;12.080;2022-11-18T09:13:33;7.50;99.90
39079;DHT22;24829;49.208;12.080;2022-11-18T09:16:00;7.50;99.90
39079;DHT22;24829;49.208;12.080;2022-11-18T09:18:25;7.60;99.90
39079;DHT22;24829;49.208;12.080;2022-11-18T09:21:00;7.60;99.90
39079;DHT22;24829;49.208;12.080;2022-11-18T09:23:26;7.70;99.90
39079;DHT22;24829;49.208;12.080;2022-11-18T09:26:03;7.70;99.90
39079;DHT22;24829;49.208;12.080;2022-11-18T09:28:29;7.70;99.90
39079;DHT22;24829;49.208;12.080;2022-11-18T09:30:55;7.70;99.90
39079;DHT22;24829;49.208;12.080;2022-11-18T09:33:22;7.70;99.90
39079;DHT22;24829;49.208;12.080;2022-11-18T09:35:47;7.70;99.90
39079;DHT22;24829;49.208;12.080;2022-11-18T09:38:13;7.70;99.90
39079;DHT22;24829;49.208;12.080;2022-11-18T09:40:49;7.80;99.90
39079;DHT22;24829;49.208;12.080;2022-11-18T09:49:02;7.90;99.90
39079;DHT22;24829;49.208;12.080;2022-11-18T09:51:44;7.90;99.90
39079;DHT22;24829;49.208;12.080;2022-11-18T09:54:16;7.90;99.90
39079;DHT22;24829;49.208;12.080;2022-11-18T09:56:45;7.90;99.90
39079;DHT22;24829;49.208;12.080;2022-11-18T09:59:13;7.90;99.90
39079;DHT22;24829;49.208;12.080;2022-11-18T10:01:40;8.00;99.90
39079;DHT22;24829;49.208;12.080;2022-11-18T10:04:14;7.90;99.90
39079;DHT22;24829;49.208;12.080;2022-11-18T10:06:40;7.80;99.90
39079;DHT22;24829;49.208;12.080;2022-11-18T10:09:36;7.80;99.90
39079;DHT22;24829;49.208;12.080;2022-11-18T10:26:04;7.60;99.90
39079;DHT22;24829;49.208;12.080;2022-11-18T10:28:30;7.60;99.90
39079;DHT22;24829;49.208;12.080;2022-11-18T10:31:08;7.60;99.90
39079;DHT22;24829;49.208;12.080;2022-11-18T10:33:34;7.70;99.90
39079;DHT22;24829;49.208;12.080;2022-11-18T10:38:42;7.80;99.90
39079;DHT22;24829;49.208;12.080;2022-11-18T10:41:12;7.80;99.90
39079;DHT22;24829;49.208;12.080;2022-11-18T10:46:37;7.90;99.90
39079;DHT22;24829;49.208;12.080;2022-11-18T10:51:38;7.80;99.90
39079;DHT22;24829;49.208;12.080;2022-11-18T10:54:18;7.90;99.90
39079;DHT22;24829;49.208;12.080;2022-11-18T10:56:53;7.90;99.90
39079;DHT22;24829;49.208;12.080;2022-11-18T10:59:31;7.90;99.90
39079;DHT22;24829;49.208;12.080;2022-11-18T11:02:12;8.00;99.90
39079;DHT22;24829;49.208;12.080;2022-11-18T11:04:39;8.00;99.90
39079;DHT22;24829;49.208;12.080;2022-11-18T11:12:31;7.90;99.90
39079;DHT22;24829;49.208;12.080;2022-11-18T11:15:00;7.90;99.90
39079;DHT22;24829;49.208;12.080;2022-11-18T11:17:34;7.90;99.90
39079;DHT22;24829;49.208;12.080;2022-11-18T11:20:18;7.90;99.90
39079;DHT22;24829;49.208;12.080;2022-11-18T11:22:44;7.90;99.90
39079;DHT22;24829;49.208;12.080;2022-11-18T11:25:17;7.90;99.90
39079;DHT22;24829;49.208;12.080;2022-11-18T11:30:20;7.80;99.90
39079;DHT22;24829;49.208;12.080;2022-11-18T11:35:46;7.80;99.90
39079;DHT22;24829;49.208;12.080;2022-11-18T11:38:42;7.70;99.90
39079;DHT22;24829;49.208;12.080;2022-11-18T11:41:34;7.70;99.90
39079;DHT22;24829;49.208;12.080;2022-11-18T11:47:21;7.50;99.90
39079;DHT22;24829;49.208;12.080;2022-11-18T11:50:12;7.40;99.90
39079;DHT22;24829;49.208;12.080;2022-11-18T11:59:05;7.10;99.90
39079;DHT22;24829;49.208;12.080;2022-11-18T12:01:54;7.10;99.90
39079;DHT22;24829;49.208;12.080;2022-11-18T12:04:38;7.00;99.90
39079;DHT22;24829;49.208;12.080;2022-11-18T12:07:11;7.10;99.90
39079;DHT22;24829;49.208;12.080;2022-11-18T12:09:53;7.10;99.90
39079;DHT22;24829;49.208;12.080;2022-11-18T12:12:41;7.20;99.90
39079;DHT22;24829;49.208;12.080;2022-11-18T12:18:39;7.30;99.90
39079;DHT22;24829;49.208;12.080;2022-11-18T12:21:06;7.30;99.90
39079;DHT22;24829;49.208;12.080;2022-11-18T12:23:32;7.30;99.90
39079;DHT22;24829;49.208;12.080;2022-11-18T12:26:04;7.40;99.90
39079;DHT22;24829;49.208;12.080;2022-11-18T12:28:42;7.30;99.90
39079;DHT22;24829;49.208;12.080;2022-11-18T12:34:03;7.40;99.90
39079;DHT22;24829;49.208;12.080;2022-11-18T12:36:32;7.50;99.90
39079;DHT22;24829;49.208;12.080;2022-11-18T12:39:45;7.50;99.90
39079;DHT22;24829;49.208;12.080;2022-11-18T12:44:29;7.50;99.90
39079;DHT22;24829;49.208;12.080;2022-11-18T12:46:57;7.50;99.90
39079;DHT22;24829;49.208;12.080;2022-11-18T12:51:56;7.40;99.90
39079;DHT22;24829;49.208;12.080;2022-11-18T12:54:48;7.40;99.90
39079;DHT22;24829;49.208;12.080;2022-11-18T12:57:27;7.40;99.90
39079;DHT22;24829;49.208;12.080;2022-11-18T12:59:53;7.40;99.90
39079;DHT22;24829;49.208;12.080;2022-11-18T13:02:27;7.40;99.90
39079;DHT22;24829;49.208;12.080;2022-11-18T13:05:10;7.40;99.90
39079;DHT22;24829;49.208;12.080;2022-11-18T13:10:32;7.40;99.90
39079;DHT22;24829;49.208;12.080;2022-11-18T13:12:59;7.40;99.90
39079;DHT22;24829;49.208;12.080;2022-11-18T13:15:26;7.40;99.90
39079;DHT22;24829;49.208;12.080;2022-11-18T13:18:17;7.40;99.90
39079;DHT22;24829;49.208;12.080;2022-11-18T13:20:56;7.40;99.90
39079;DHT22;24829;49.208;12.080;2022-11-18T13:26:18;7.50;99.90
39079;DHT22;24829;49.208;12.080;2022-11-18T13:33:44;7.50;99.90
39079;DHT22;24829;49.208;12.080;2022-11-18T13:36:17;7.50;99.90
39079;DHT22;24829;49.208;12.080;2022-11-18T13:38:58;7.40;99.90
39079;DHT22;24829;49.208;12.080;2022-11-18T13:41:25;7.40;99.90
39079;DHT22;24829;49.208;12.080;2022-11-18T13:44:18;7.40;99.90
39079;DHT22;24829;49.208;12.080;2022-11-18T13:46:50;7.20;99.90
39079;DHT22;24829;49.208;12.080;2022-11-18T13:49:46;7.10;99.90
39079;DHT22;24829;49.208;12.080;2022-11-18T13:52:18;7.00;99.90
39079;DHT22;24829;49.208;12.080;2022-11-18T13:54:46;6.90;99.90
39079;DHT22;24829;49.208;12.080;2022-11-18T13:57:17;6.80;99.90
39079;DHT22;24829;49.208;12.080;2022-11-18T13:59:45;6.80;99.90
39079;DHT22;24829;49.208;12.080;2022-11-18T14:02:13;6.70;99.90
39079;DHT22;24829;49.208;12.080;2022-11-18T14:05:03;6.70;99.90
39079;DHT22;24829;49.208;12.080;2022-11-18T14:07:32;6.80;99.90
39079;DHT22;24829;49.208;12.080;2022-11-18T14:10:07;6.80;99.90
39079;DHT22;24829;49.208;12.080;2022-11-18T14:12:34;6.90;99.90
39079;DHT22;24829;49.208;12.080;2022-11-18T14:15:35;6.90;99.90
39079;DHT22;24829;49.208;12.080;2022-11-18T14:18:00;6.90;99.90
39079;DHT22;24829;49.208;12.080;2022-11-18T14:20:28;6.90;99.90
39079;DHT22;24829;49.208;12.080;2022-11-18T14:22:57;6.90;99.90
39079;DHT22;24829;49.208;12.080;2022-11-18T14:25:29;6.90;99.90
39079;DHT22;24829;49.208;12.080;2022-11-18T14:28:19;7.00;99.90
39079;DHT22;24829;49.208;12.080;2022-11-18T14:33:51;7.10;99.90
39079;DHT22;24829;49.208;12.080;2022-11-18T14:36:28;7.20;99.90
39079;DHT22;24829;49.208;12.080;2022-11-18T14:38:53;7.30;99.90
39079;DHT22;24829;49.208;12.080;2022-11-18T14:41:20;7.30;99.90
39079;DHT22;24829;49.208;12.080;2022-11-18T14:44:05;7.30;99.90
39079;DHT22;24829;49.208;12.080;2022-11-18T14:46:31;7.30;99.90
39079;DHT22;24829;49.208;12.080;2022-11-18T14:49:01;7.40;99.90
39079;DHT22;24829;49.208;12.080;2022-11-18T14:51:27;7.40;99.90
39079;DHT22;24829;49.208;12.080;2022-11-18T14:53:53;7.40;99.90
39079;DHT22;24829;49.208;12.080;2022-11-18T14:56:23;7.40;99.90
39079;DHT22;24829;49.208;12.080;2022-11-18T14:58:51;7.40;99.90
39079;DHT22;24829;49.208;12.080;2022-11-18T15:01:16;7.40;99.90
39079;DHT22;24829;49.208;12.080;2022-11-18T15:03:42;7.40;99.90
39079;DHT22;24829;49.208;12.080;2022-11-18T15:06:15;7.40;99.90
39079;DHT22;24829;49.208;12.080;2022-11-18T15:08:42;7.40;99.90
39079;DHT22;24829;49.208;12.080;2022-11-18T15:11:08;7.50;99.90
39079;DHT22;24829;49.208;12.080;2022-11-18T15:13:33;7.50;99.90
39079;DHT22;24829;49.208;12.080;2022-11-18T15:16:01;7.50;99.90
39079;DHT22;24829;49.208;12.080;2022-11-18T15:18:30;7.50;99.90
39079;DHT22;24829;49.208;12.080;2022-11-18T15:20:56;7.50;99.90
39079;DHT22;24829;49.208;12.080;2022-11-18T15:23:21;7.50;99.90
39079;DHT22;24829;49.208;12.080;2022-11-18T15:25:47;7.40;99.90
39079;DHT22;24829;49.208;12.080;2022-11-18T15:28:13;7.30;99.90
39079;DHT22;24829;49.208;12.080;2022-11-18T15:30:39;7.20;99.90
39079;DHT22;24829;49.208;12.080;2022-11-18T15:33:04;7.10;99.90
39079;DHT22;24829;49.208;12.080;2022-11-18T15:35:30;7.00;99.90
39079;DHT22;24829;49.208;12.080;2022-11-18T15:37:55;7.00;99.90
39079;DHT22;24829;49.208;12.080;2022-11-18T15:40:21;7.00;99.90
39079;DHT22;24829;49.208;12.080;2022-11-18T15:42:47;6.90;99.90
39079;DHT22;24829;49.208;12.080;2022-11-18T15:45:12;6.90;99.90
39079;DHT22;24829;49.208;12.080;2022-11-18T15:47:38;6.90;99.90
39079;DHT22;24829;49.208;12.080;2022-11-18T15:50:04;6.90;99.90
39079;DHT22;24829;49.208;12.080;2022-11-18T15:52:30;6.90;99.90
39079;DHT22;24829;49.208;12.080;2022-11-18T15:54:55;7.00;99.90
39079;DHT22;24829;49.208;12.080;2022-11-18T15:57:21;7.00;99.90
39079;DHT22;24829;49.208;12.080;2022-11-18T15:59:46;7.00;99.90
39079;DHT22;24829;49.208;12.080;2022-11-18T16:02:12;7.00;99.90
39079;DHT22;24829;49.208;12.080;2022-11-18T16:04:38;7.00;99.90
39079;DHT22;24829;49.208;12.080;2022-11-18T16:07:04;7.00;99.90
39079;DHT22;24829;49.208;12.080;2022-11-18T16:09:29;7.00;99.90
39079;DHT22;24829;49.208;12.080;2022-11-18T16:12:15;7.10;99.90
39079;DHT22;24829;49.208;12.080;2022-11-18T16:15:00;7.10;99.90
39079;DHT22;24829;49.208;12.080;2022-11-18T16:17:44;7.20;99.90
39079;DHT22;24829;49.208;12.080;2022-11-18T16:20:09;7.20;99.90
39079;DHT22;24829;49.208;12.080;2022-11-18T16:22:35;7.20;99.90
39079;DHT22;24829;49.208;12.080;2022-11-18T16:25:01;7.20;99.90
39079;DHT22;24829;49.208;12.080;2022-11-18T16:27:26;7.20;99.90
39079;DHT22;24829;49.208;12.080;2022-11-18T16:29:52;7.10;99.90
39079;DHT22;24829;49.208;12.080;2022-11-18T16:32:17;7.10;99.90
39079;DHT22;24829;49.208;12.080;2022-11-18T16:34:43;7.10;99.90
39079;DHT22;24829;49.208;12.080;2022-11-18T16:37:08;7.10;99.90
39079;DHT22;24829;49.208;12.080;2022-11-18T16:39:34;7.20;99.90
39079;DHT22;24829;49.208;12.080;2022-11-18T16:42:01;7.20;99.90
39079;DHT22;24829;49.208;12.080;2022-11-18T16:44:26;7.20;99.90
39079;DHT22;24829;49.208;12.080;2022-11-18T16:46:55;7.20;99.90
39079;DHT22;24829;49.208;12.080;2022-11-18T16:49:23;7.20;99.90
39079;DHT22;24829;49.208;12.080;2022-11-18T16:51:51;7.10;99.90
39079;DHT22;24829;49.208;12.080;2022-11-18T16:54:22;7.20;99.90
39079;DHT22;24829;49.208;12.080;2022-11-18T16:56:48;7.10;99.90
39079;DHT22;24829;49.208;12.080;2022-11-18T16:59:17;7.10;99.90
39079;DHT22;24829;49.208;12.080;2022-11-18T17:01:43;7.10;99.90
39079;DHT22;24829;49.208;12.080;2022-11-18T17:04:08;7.10;99.90
39079;DHT22;24829;49.208;12.080;2022-11-18T17:06:36;7.10;99.90
39079;DHT22;24829;49.208;12.080;2022-11-18T17:09:03;7.10;99.90
39079;DHT22;24829;49.208;12.080;2022-11-18T17:11:28;7.20;99.90
39079;DHT22;24829;49.208;12.080;2022-11-18T17:13:54;7.20;99.90
39079;DHT22;24829;49.208;12.080;2022-11-18T17:16:23;7.20;99.90
39079;DHT22;24829;49.208;12.080;2022-11-18T17:18:56;7.20;99.90
39079;DHT22;24829;49.208;12.080;2022-11-18T17:21:22;7.20;99.90
39079;DHT22;24829;49.208;12.080;2022-11-18T17:23:48;7.30;99.90
39079;DHT22;24829;49.208;12.080;2022-11-18T17:26:17;7.20;99.90
39079;DHT22;24829;49.208;12.080;2022-11-18T17:28:43;7.20;99.90